Terminal Aerodrome Forecast
Issued by NWS

Home | Current Version | Previous Version | Text Only | Print | Product List | Glossary On
Versions: 1 2 3 4 5 6 7 8 9 10 11 12 13
000
FTUS46 KLOX 200559
TAFBUR
TAF
KBUR 200559Z 2006/2106 17006KT P6SM SCT250
     FM200700 VRB03KT P6SM BKN012 BKN025
     FM201400 12005KT P6SM OVC035
     FM201700 17010KT P6SM BKN040 BKN250
     FM202100 21012KT P6SM BKN040 BKN090=

USA.gov is the U.S. government's official web portal to all federal, state and local government web resources and services.